sensor_id;sensor_type;location;lat;lon;timestamp;temperature;humidity
54272;DHT22;40184;53.362;5.216;2023-03-23T00:02:12;10.60;99.90
54272;DHT22;40184;53.362;5.216;2023-03-23T00:04:37;10.60;99.90
54272;DHT22;40184;53.362;5.216;2023-03-23T00:07:03;10.60;99.90
54272;DHT22;40184;53.362;5.216;2023-03-23T00:09:29;10.60;99.90
54272;DHT22;40184;53.362;5.216;2023-03-23T00:11:55;10.60;99.90
54272;DHT22;40184;53.362;5.216;2023-03-23T00:14:23;10.60;99.90
54272;DHT22;40184;53.362;5.216;2023-03-23T00:16:50;10.70;99.90
54272;DHT22;40184;53.362;5.216;2023-03-23T00:19:16;10.70;99.90
54272;DHT22;40184;53.362;5.216;2023-03-23T00:21:45;10.70;99.90
54272;DHT22;40184;53.362;5.216;2023-03-23T00:24:16;10.70;99.90
54272;DHT22;40184;53.362;5.216;2023-03-23T00:26:44;10.70;99.90
54272;DHT22;40184;53.362;5.216;2023-03-23T00:29:18;10.70;99.90
54272;DHT22;40184;53.362;5.216;2023-03-23T00:31:45;10.70;99.90
54272;DHT22;40184;53.362;5.216;2023-03-23T00:34:16;10.70;99.90
54272;DHT22;40184;53.362;5.216;2023-03-23T00:36:52;10.70;99.90
54272;DHT22;40184;53.362;5.216;2023-03-23T00:39:22;10.70;99.90
54272;DHT22;40184;53.362;5.216;2023-03-23T00:41:50;10.80;99.90
54272;DHT22;40184;53.362;5.216;2023-03-23T00:44:15;10.70;99.90
54272;DHT22;40184;53.362;5.216;2023-03-23T00:46:47;10.80;99.90
54272;DHT22;40184;53.362;5.216;2023-03-23T00:49:16;10.80;99.90
54272;DHT22;40184;53.362;5.216;2023-03-23T00:51:43;10.80;99.90
54272;DHT22;40184;53.362;5.216;2023-03-23T00:54:09;10.80;99.90
54272;DHT22;40184;53.362;5.216;2023-03-23T00:56:36;10.80;99.90
54272;DHT22;40184;53.362;5.216;2023-03-23T00:59:02;10.80;99.90
54272;DHT22;40184;53.362;5.216;2023-03-23T01:01:28;10.80;99.90
54272;DHT22;40184;53.362;5.216;2023-03-23T01:03:53;10.80;99.90
54272;DHT22;40184;53.362;5.216;2023-03-23T01:06:29;10.80;99.90
54272;DHT22;40184;53.362;5.216;2023-03-23T01:08:57;10.80;99.90
54272;DHT22;40184;53.362;5.216;2023-03-23T01:11:23;10.80;99.90
54272;DHT22;40184;53.362;5.216;2023-03-23T01:13:50;10.80;99.90
54272;DHT22;40184;53.362;5.216;2023-03-23T01:16:16;10.90;99.90
54272;DHT22;40184;53.362;5.216;2023-03-23T01:18:41;10.80;99.90
54272;DHT22;40184;53.362;5.216;2023-03-23T01:21:13;10.80;99.90
54272;DHT22;40184;53.362;5.216;2023-03-23T01:23:39;10.90;99.90
54272;DHT22;40184;53.362;5.216;2023-03-23T01:26:17;10.90;99.90
54272;DHT22;40184;53.362;5.216;2023-03-23T01:28:44;10.80;99.90
54272;DHT22;40184;53.362;5.216;2023-03-23T01:31:18;10.80;99.90
54272;DHT22;40184;53.362;5.216;2023-03-23T01:33:44;11.00;99.90
54272;DHT22;40184;53.362;5.216;2023-03-23T01:36:15;10.90;99.90
54272;DHT22;40184;53.362;5.216;2023-03-23T01:38:43;10.90;99.90
54272;DHT22;40184;53.362;5.216;2023-03-23T01:41:11;11.00;99.90
54272;DHT22;40184;53.362;5.216;2023-03-23T01:46:27;11.00;99.90
54272;DHT22;40184;53.362;5.216;2023-03-23T01:48:54;11.00;99.90
54272;DHT22;40184;53.362;5.216;2023-03-23T01:51:21;11.00;99.90
54272;DHT22;40184;53.362;5.216;2023-03-23T01:54:00;11.00;99.90
54272;DHT22;40184;53.362;5.216;2023-03-23T01:56:39;11.00;99.90
54272;DHT22;40184;53.362;5.216;2023-03-23T01:59:07;11.00;99.90
54272;DHT22;40184;53.362;5.216;2023-03-23T02:01:35;11.00;99.90
54272;DHT22;40184;53.362;5.216;2023-03-23T02:04:03;11.10;99.90
54272;DHT22;40184;53.362;5.216;2023-03-23T02:06:30;11.10;99.90
54272;DHT22;40184;53.362;5.216;2023-03-23T02:08:56;11.10;99.90
54272;DHT22;40184;53.362;5.216;2023-03-23T02:11:22;11.10;99.90
54272;DHT22;40184;53.362;5.216;2023-03-23T02:13:48;11.20;99.90
54272;DHT22;40184;53.362;5.216;2023-03-23T02:16:30;11.20;99.90
54272;DHT22;40184;53.362;5.216;2023-03-23T02:19:10;11.20;99.90
54272;DHT22;40184;53.362;5.216;2023-03-23T02:24:53;11.20;99.90
54272;DHT22;40184;53.362;5.216;2023-03-23T02:27:48;11.20;99.90
54272;DHT22;40184;53.362;5.216;2023-03-23T02:30:34;11.20;99.90
54272;DHT22;40184;53.362;5.216;2023-03-23T02:35:50;11.30;99.90
54272;DHT22;40184;53.362;5.216;2023-03-23T02:38:32;11.30;99.90
54272;DHT22;40184;53.362;5.216;2023-03-23T02:41:02;11.30;99.90
54272;DHT22;40184;53.362;5.216;2023-03-23T02:43:33;11.20;99.90
54272;DHT22;40184;53.362;5.216;2023-03-23T02:46:01;11.30;99.90
54272;DHT22;40184;53.362;5.216;2023-03-23T02:48:31;11.30;99.90
54272;DHT22;40184;53.362;5.216;2023-03-23T02:50:58;11.30;99.90
54272;DHT22;40184;53.362;5.216;2023-03-23T02:53:26;11.30;99.90
54272;DHT22;40184;53.362;5.216;2023-03-23T02:55:54;11.30;99.90
54272;DHT22;40184;53.362;5.216;2023-03-23T02:58:21;11.30;99.90
54272;DHT22;40184;53.362;5.216;2023-03-23T03:00:49;11.30;99.90
54272;DHT22;40184;53.362;5.216;2023-03-23T03:03:19;11.30;99.90
54272;DHT22;40184;53.362;5.216;2023-03-23T03:06:07;11.30;99.90
54272;DHT22;40184;53.362;5.216;2023-03-23T03:08:49;11.30;99.90
54272;DHT22;40184;53.362;5.216;2023-03-23T03:11:18;11.30;99.90
54272;DHT22;40184;53.362;5.216;2023-03-23T03:16:28;11.20;99.90
54272;DHT22;40184;53.362;5.216;2023-03-23T03:21:47;11.10;99.90
54272;DHT22;40184;53.362;5.216;2023-03-23T03:24:15;11.10;99.90
54272;DHT22;40184;53.362;5.216;2023-03-23T03:26:45;11.10;99.90
54272;DHT22;40184;53.362;5.216;2023-03-23T03:29:15;11.10;99.90
54272;DHT22;40184;53.362;5.216;2023-03-23T03:31:44;11.10;99.90
54272;DHT22;40184;53.362;5.216;2023-03-23T03:34:14;11.10;99.90
54272;DHT22;40184;53.362;5.216;2023-03-23T03:36:46;11.00;99.90
54272;DHT22;40184;53.362;5.216;2023-03-23T03:39:13;11.10;99.90
54272;DHT22;40184;53.362;5.216;2023-03-23T03:41:42;11.00;99.90
54272;DHT22;40184;53.362;5.216;2023-03-23T03:44:08;11.00;99.90
54272;DHT22;40184;53.362;5.216;2023-03-23T03:46:35;11.00;99.90
54272;DHT22;40184;53.362;5.216;2023-03-23T03:49:02;11.00;99.90
54272;DHT22;40184;53.362;5.216;2023-03-23T03:51:29;10.90;99.90
54272;DHT22;40184;53.362;5.216;2023-03-23T03:53:56;10.90;99.90
54272;DHT22;40184;53.362;5.216;2023-03-23T03:56:22;10.90;99.90
54272;DHT22;40184;53.362;5.216;2023-03-23T03:58:49;10.90;99.90
54272;DHT22;40184;53.362;5.216;2023-03-23T04:01:17;10.90;99.90
54272;DHT22;40184;53.362;5.216;2023-03-23T04:03:43;10.90;99.90
54272;DHT22;40184;53.362;5.216;2023-03-23T04:06:11;10.90;99.90
54272;DHT22;40184;53.362;5.216;2023-03-23T04:08:38;10.90;99.90
54272;DHT22;40184;53.362;5.216;2023-03-23T04:11:09;10.90;99.90
54272;DHT22;40184;53.362;5.216;2023-03-23T04:13:36;10.90;99.90
54272;DHT22;40184;53.362;5.216;2023-03-23T04:16:02;10.80;99.90
54272;DHT22;40184;53.362;5.216;2023-03-23T04:18:29;10.90;99.90
54272;DHT22;40184;53.362;5.216;2023-03-23T04:20:58;10.80;99.90
54272;DHT22;40184;53.362;5.216;2023-03-23T04:23:26;10.80;99.90
54272;DHT22;40184;53.362;5.216;2023-03-23T04:25:52;10.80;99.90
54272;DHT22;40184;53.362;5.216;2023-03-23T04:28:24;10.70;99.90
54272;DHT22;40184;53.362;5.216;2023-03-23T04:30:51;10.70;99.90
54272;DHT22;40184;53.362;5.216;2023-03-23T04:33:24;10.60;99.90
54272;DHT22;40184;53.362;5.216;2023-03-23T04:35:56;10.60;99.90
54272;DHT22;40184;53.362;5.216;2023-03-23T04:38:23;10.60;99.90
54272;DHT22;40184;53.362;5.216;2023-03-23T04:40:51;10.50;99.90
54272;DHT22;40184;53.362;5.216;2023-03-23T04:43:18;10.50;99.90
54272;DHT22;40184;53.362;5.216;2023-03-23T04:45:47;10.50;99.90
54272;DHT22;40184;53.362;5.216;2023-03-23T04:48:17;10.50;99.90
54272;DHT22;40184;53.362;5.216;2023-03-23T04:50:43;10.50;99.90
54272;DHT22;40184;53.362;5.216;2023-03-23T04:53:09;10.50;99.90
54272;DHT22;40184;53.362;5.216;2023-03-23T04:55:36;10.50;99.90
54272;DHT22;40184;53.362;5.216;2023-03-23T04:58:06;10.50;99.90
54272;DHT22;40184;53.362;5.216;2023-03-23T05:00:33;10.50;99.90
54272;DHT22;40184;53.362;5.216;2023-03-23T05:02:59;10.40;99.90
54272;DHT22;40184;53.362;5.216;2023-03-23T05:05:27;10.40;99.90
54272;DHT22;40184;53.362;5.216;2023-03-23T05:07:54;10.40;99.90
54272;DHT22;40184;53.362;5.216;2023-03-23T05:10:20;10.40;99.90
54272;DHT22;40184;53.362;5.216;2023-03-23T05:12:46;10.40;99.90
54272;DHT22;40184;53.362;5.216;2023-03-23T05:15:13;10.40;99.90
54272;DHT22;40184;53.362;5.216;2023-03-23T05:17:40;10.40;99.90
54272;DHT22;40184;53.362;5.216;2023-03-23T05:20:15;10.30;99.90
54272;DHT22;40184;53.362;5.216;2023-03-23T05:22:45;10.30;99.90
54272;DHT22;40184;53.362;5.216;2023-03-23T05:25:13;10.30;99.90
54272;DHT22;40184;53.362;5.216;2023-03-23T05:27:39;10.30;99.90
54272;DHT22;40184;53.362;5.216;2023-03-23T05:30:08;10.20;99.90
54272;DHT22;40184;53.362;5.216;2023-03-23T05:32:34;10.20;99.90
54272;DHT22;40184;53.362;5.216;2023-03-23T05:35:00;10.10;99.90
54272;DHT22;40184;53.362;5.216;2023-03-23T05:37:27;10.10;99.90
54272;DHT22;40184;53.362;5.216;2023-03-23T05:39:59;10.00;99.90
54272;DHT22;40184;53.362;5.216;2023-03-23T05:42:27;9.90;99.90
54272;DHT22;40184;53.362;5.216;2023-03-23T05:44:52;9.90;99.90
54272;DHT22;40184;53.362;5.216;2023-03-23T05:47:18;9.80;99.90
54272;DHT22;40184;53.362;5.216;2023-03-23T05:49:44;9.80;99.90
54272;DHT22;40184;53.362;5.216;2023-03-23T05:52:10;9.80;99.90
54272;DHT22;40184;53.362;5.216;2023-03-23T05:54:35;9.80;99.90
54272;DHT22;40184;53.362;5.216;2023-03-23T05:57:02;9.80;99.90
54272;DHT22;40184;53.362;5.216;2023-03-23T05:59:28;9.80;99.90
54272;DHT22;40184;53.362;5.216;2023-03-23T06:01:53;9.80;99.90
54272;DHT22;40184;53.362;5.216;2023-03-23T06:04:20;9.70;99.90
54272;DHT22;40184;53.362;5.216;2023-03-23T06:06:46;9.70;99.90
54272;DHT22;40184;53.362;5.216;2023-03-23T06:09:12;9.70;99.90
54272;DHT22;40184;53.362;5.216;2023-03-23T06:11:37;9.80;99.90
54272;DHT22;40184;53.362;5.216;2023-03-23T06:14:03;9.80;99.90
54272;DHT22;40184;53.362;5.216;2023-03-23T06:16:29;9.70;99.90
54272;DHT22;40184;53.362;5.216;2023-03-23T06:18:55;9.80;99.90
54272;DHT22;40184;53.362;5.216;2023-03-23T06:21:22;9.70;99.90
54272;DHT22;40184;53.362;5.216;2023-03-23T06:23:48;9.70;99.90
54272;DHT22;40184;53.362;5.216;2023-03-23T06:26:14;9.70;99.90
54272;DHT22;40184;53.362;5.216;2023-03-23T06:28:42;9.70;99.90
54272;DHT22;40184;53.362;5.216;2023-03-23T06:31:08;9.70;99.90
54272;DHT22;40184;53.362;5.216;2023-03-23T06:33:36;9.70;99.90
54272;DHT22;40184;53.362;5.216;2023-03-23T06:36:03;9.80;99.90
54272;DHT22;40184;53.362;5.216;2023-03-23T06:38:28;9.80;99.90
54272;DHT22;40184;53.362;5.216;2023-03-23T06:40:55;9.80;99.90
54272;DHT22;40184;53.362;5.216;2023-03-23T06:43:22;9.90;99.90
54272;DHT22;40184;53.362;5.216;2023-03-23T06:45:52;9.90;99.90
54272;DHT22;40184;53.362;5.216;2023-03-23T06:48:17;10.00;99.90
54272;DHT22;40184;53.362;5.216;2023-03-23T06:50:44;10.00;99.90
54272;DHT22;40184;53.362;5.216;2023-03-23T06:53:11;10.00;99.90
54272;DHT22;40184;53.362;5.216;2023-03-23T06:55:37;10.10;99.90
54272;DHT22;40184;53.362;5.216;2023-03-23T06:58:04;10.10;99.90
54272;DHT22;40184;53.362;5.216;2023-03-23T07:00:31;10.10;99.90
54272;DHT22;40184;53.362;5.216;2023-03-23T07:02:57;10.20;99.90
54272;DHT22;40184;53.362;5.216;2023-03-23T07:05:23;10.20;99.90
54272;DHT22;40184;53.362;5.216;2023-03-23T07:07:50;10.30;99.90
54272;DHT22;40184;53.362;5.216;2023-03-23T07:10:16;10.30;99.90
54272;DHT22;40184;53.362;5.216;2023-03-23T07:12:42;10.40;99.90
54272;DHT22;40184;53.362;5.216;2023-03-23T07:15:09;10.40;99.90
54272;DHT22;40184;53.362;5.216;2023-03-23T07:17:37;10.50;99.90
54272;DHT22;40184;53.362;5.216;2023-03-23T07:20:03;10.50;99.90
54272;DHT22;40184;53.362;5.216;2023-03-23T07:22:30;10.50;99.90
54272;DHT22;40184;53.362;5.216;2023-03-23T07:24:56;10.60;99.90
54272;DHT22;40184;53.362;5.216;2023-03-23T07:27:21;10.60;99.90
54272;DHT22;40184;53.362;5.216;2023-03-23T07:29:48;10.70;99.90
54272;DHT22;40184;53.362;5.216;2023-03-23T07:32:13;10.70;99.90
54272;DHT22;40184;53.362;5.216;2023-03-23T07:34:39;10.70;99.90
54272;DHT22;40184;53.362;5.216;2023-03-23T07:37:06;10.70;99.90
54272;DHT22;40184;53.362;5.216;2023-03-23T07:39:31;10.80;99.90
54272;DHT22;40184;53.362;5.216;2023-03-23T07:41:58;10.90;99.90
54272;DHT22;40184;53.362;5.216;2023-03-23T07:44:24;10.90;99.90
54272;DHT22;40184;53.362;5.216;2023-03-23T07:46:50;10.90;99.90
54272;DHT22;40184;53.362;5.216;2023-03-23T07:49:16;10.90;99.90
54272;DHT22;40184;53.362;5.216;2023-03-23T07:51:43;11.00;99.90
54272;DHT22;40184;53.362;5.216;2023-03-23T07:54:08;11.00;99.90
54272;DHT22;40184;53.362;5.216;2023-03-23T07:56:35;11.00;99.90
54272;DHT22;40184;53.362;5.216;2023-03-23T07:59:01;11.00;99.90
54272;DHT22;40184;53.362;5.216;2023-03-23T08:01:28;11.00;99.90
54272;DHT22;40184;53.362;5.216;2023-03-23T08:03:54;11.00;99.90
54272;DHT22;40184;53.362;5.216;2023-03-23T08:06:26;11.00;99.90
54272;DHT22;40184;53.362;5.216;2023-03-23T08:08:52;11.00;99.90
54272;DHT22;40184;53.362;5.216;2023-03-23T08:11:18;11.00;99.90
54272;DHT22;40184;53.362;5.216;2023-03-23T08:13:45;11.00;99.90
54272;DHT22;40184;53.362;5.216;2023-03-23T08:16:11;11.10;99.90
54272;DHT22;40184;53.362;5.216;2023-03-23T08:18:37;11.10;99.90
54272;DHT22;40184;53.362;5.216;2023-03-23T08:21:05;11.10;99.90
54272;DHT22;40184;53.362;5.216;2023-03-23T08:23:32;11.10;99.90
54272;DHT22;40184;53.362;5.216;2023-03-23T08:25:58;11.20;99.90
54272;DHT22;40184;53.362;5.216;2023-03-23T08:28:24;11.20;99.90
54272;DHT22;40184;53.362;5.216;2023-03-23T08:30:50;11.20;99.90
54272;DHT22;40184;53.362;5.216;2023-03-23T08:33:16;11.10;99.90
54272;DHT22;40184;53.362;5.216;2023-03-23T08:35:42;11.20;99.90
54272;DHT22;40184;53.362;5.216;2023-03-23T08:38:10;11.20;99.90
54272;DHT22;40184;53.362;5.216;2023-03-23T08:40:37;11.20;99.90
54272;DHT22;40184;53.362;5.216;2023-03-23T08:43:04;11.20;99.90
54272;DHT22;40184;53.362;5.216;2023-03-23T08:45:29;11.30;99.90
54272;DHT22;40184;53.362;5.216;2023-03-23T08:47:55;11.30;99.90
54272;DHT22;40184;53.362;5.216;2023-03-23T08:50:26;11.40;99.90
54272;DHT22;40184;53.362;5.216;2023-03-23T08:52:53;11.40;99.90
54272;DHT22;40184;53.362;5.216;2023-03-23T08:55:20;11.50;99.90
54272;DHT22;40184;53.362;5.216;2023-03-23T08:57:46;11.50;99.90
54272;DHT22;40184;53.362;5.216;2023-03-23T09:00:15;11.60;99.90
54272;DHT22;40184;53.362;5.216;2023-03-23T09:02:48;11.60;99.90
54272;DHT22;40184;53.362;5.216;2023-03-23T09:05:16;11.60;99.90
54272;DHT22;40184;53.362;5.216;2023-03-23T09:07:44;11.70;99.90
54272;DHT22;40184;53.362;5.216;2023-03-23T09:10:12;11.70;99.90
54272;DHT22;40184;53.362;5.216;2023-03-23T09:12:39;11.70;99.90
54272;DHT22;40184;53.362;5.216;2023-03-23T09:15:06;11.80;99.90
54272;DHT22;40184;53.362;5.216;2023-03-23T09:17:34;11.80;99.90
54272;DHT22;40184;53.362;5.216;2023-03-23T09:20:00;11.90;99.90
54272;DHT22;40184;53.362;5.216;2023-03-23T09:22:26;11.90;99.90
54272;DHT22;40184;53.362;5.216;2023-03-23T09:24:53;11.90;99.90
54272;DHT22;40184;53.362;5.216;2023-03-23T09:27:18;12.00;99.90
54272;DHT22;40184;53.362;5.216;2023-03-23T09:29:44;12.00;99.90
54272;DHT22;40184;53.362;5.216;2023-03-23T09:32:10;12.00;99.90
54272;DHT22;40184;53.362;5.216;2023-03-23T09:34:38;12.10;99.90
54272;DHT22;40184;53.362;5.216;2023-03-23T09:37:04;12.10;99.90
54272;DHT22;40184;53.362;5.216;2023-03-23T09:39:30;12.10;99.90
54272;DHT22;40184;53.362;5.216;2023-03-23T09:45:20;12.10;99.90
54272;DHT22;40184;53.362;5.216;2023-03-23T09:50:32;12.20;99.90
54272;DHT22;40184;53.362;5.216;2023-03-23T09:53:21;12.20;99.90
54272;DHT22;40184;53.362;5.216;2023-03-23T09:55:48;12.30;99.90
54272;DHT22;40184;53.362;5.216;2023-03-23T10:03:26;12.40;99.90
54272;DHT22;40184;53.362;5.216;2023-03-23T10:05:54;12.40;99.90
54272;DHT22;40184;53.362;5.216;2023-03-23T10:08:29;12.50;99.90
54272;DHT22;40184;53.362;5.216;2023-03-23T10:16:07;12.70;99.90
54272;DHT22;40184;53.362;5.216;2023-03-23T10:19:08;12.60;99.90
54272;DHT22;40184;53.362;5.216;2023-03-23T10:21:38;12.60;99.90
54272;DHT22;40184;53.362;5.216;2023-03-23T10:24:10;12.60;99.90
54272;DHT22;40184;53.362;5.216;2023-03-23T10:32:56;12.70;99.90
54272;DHT22;40184;53.362;5.216;2023-03-23T10:35:38;12.80;99.90
54272;DHT22;40184;53.362;5.216;2023-03-23T10:38:22;12.70;99.90
54272;DHT22;40184;53.362;5.216;2023-03-23T10:40:53;12.70;99.90
54272;DHT22;40184;53.362;5.216;2023-03-23T10:43:19;12.80;99.90
54272;DHT22;40184;53.362;5.216;2023-03-23T10:45:50;12.80;99.90
54272;DHT22;40184;53.362;5.216;2023-03-23T10:48:26;12.90;99.90
54272;DHT22;40184;53.362;5.216;2023-03-23T10:50:55;12.90;99.90
54272;DHT22;40184;53.362;5.216;2023-03-23T10:53:36;12.90;99.90
54272;DHT22;40184;53.362;5.216;2023-03-23T10:56:04;12.90;99.90
54272;DHT22;40184;53.362;5.216;2023-03-23T10:58:32;12.90;99.90
54272;DHT22;40184;53.362;5.216;2023-03-23T11:01:00;13.00;99.90
54272;DHT22;40184;53.362;5.216;2023-03-23T11:06:02;13.00;99.90
54272;DHT22;40184;53.362;5.216;2023-03-23T11:08:35;13.00;99.90
54272;DHT22;40184;53.362;5.216;2023-03-23T11:11:26;13.10;99.90
54272;DHT22;40184;53.362;5.216;2023-03-23T11:13:58;13.10;99.90
54272;DHT22;40184;53.362;5.216;2023-03-23T11:16:30;13.10;99.90
54272;DHT22;40184;53.362;5.216;2023-03-23T11:19:11;13.10;99.90
54272;DHT22;40184;53.362;5.216;2023-03-23T11:21:38;13.20;99.90
54272;DHT22;40184;53.362;5.216;2023-03-23T11:24:05;13.20;99.90
54272;DHT22;40184;53.362;5.216;2023-03-23T11:26:33;13.20;99.90
54272;DHT22;40184;53.362;5.216;2023-03-23T11:29:15;13.30;99.90
54272;DHT22;40184;53.362;5.216;2023-03-23T11:32:05;13.30;99.90
54272;DHT22;40184;53.362;5.216;2023-03-23T11:34:40;13.30;99.90
54272;DHT22;40184;53.362;5.216;2023-03-23T11:37:35;13.30;99.90
54272;DHT22;40184;53.362;5.216;2023-03-23T11:42:45;13.40;99.90
54272;DHT22;40184;53.362;5.216;2023-03-23T11:45:33;13.50;99.90
54272;DHT22;40184;53.362;5.216;2023-03-23T11:48:29;13.50;99.90
54272;DHT22;40184;53.362;5.216;2023-03-23T11:51:26;13.60;99.90
54272;DHT22;40184;53.362;5.216;2023-03-23T11:53:57;13.60;99.90
54272;DHT22;40184;53.362;5.216;2023-03-23T11:56:35;13.60;99.90
54272;DHT22;40184;53.362;5.216;2023-03-23T11:59:02;13.70;99.90
54272;DHT22;40184;53.362;5.216;2023-03-23T12:15:11;14.00;99.90
54272;DHT22;40184;53.362;5.216;2023-03-23T12:21:13;14.00;99.90
54272;DHT22;40184;53.362;5.216;2023-03-23T12:35:07;14.40;99.90
54272;DHT22;40184;53.362;5.216;2023-03-23T12:43:25;14.90;99.90
54272;DHT22;40184;53.362;5.216;2023-03-23T12:49:22;15.20;99.90
54272;DHT22;40184;53.362;5.216;2023-03-23T12:55:05;15.40;99.90
54272;DHT22;40184;53.362;5.216;2023-03-23T12:57:43;15.70;99.90
54272;DHT22;40184;53.362;5.216;2023-03-23T13:00:24;15.80;99.90
54272;DHT22;40184;53.362;5.216;2023-03-23T13:03:02;15.90;99.90
54272;DHT22;40184;53.362;5.216;2023-03-23T13:05:48;16.00;99.90
54272;DHT22;40184;53.362;5.216;2023-03-23T13:08:31;15.90;99.90
54272;DHT22;40184;53.362;5.216;2023-03-23T13:11:03;16.00;99.90
54272;DHT22;40184;53.362;5.216;2023-03-23T13:13:52;15.90;99.90
54272;DHT22;40184;53.362;5.216;2023-03-23T13:24:38;16.20;99.90
54272;DHT22;40184;53.362;5.216;2023-03-23T13:27:06;16.20;99.90
54272;DHT22;40184;53.362;5.216;2023-03-23T13:29:33;16.30;99.90
54272;DHT22;40184;53.362;5.216;2023-03-23T13:32:11;16.20;99.90
54272;DHT22;40184;53.362;5.216;2023-03-23T13:34:37;16.20;99.90
54272;DHT22;40184;53.362;5.216;2023-03-23T13:37:10;16.30;99.90
54272;DHT22;40184;53.362;5.216;2023-03-23T13:39:53;16.50;99.90
54272;DHT22;40184;53.362;5.216;2023-03-23T13:42:30;16.60;99.90
54272;DHT22;40184;53.362;5.216;2023-03-23T13:45:24;16.50;99.90
54272;DHT22;40184;53.362;5.216;2023-03-23T13:48:05;16.60;99.90
54272;DHT22;40184;53.362;5.216;2023-03-23T13:50:31;16.50;99.90
54272;DHT22;40184;53.362;5.216;2023-03-23T13:53:21;16.50;99.90
54272;DHT22;40184;53.362;5.216;2023-03-23T13:56:02;16.60;99.90
54272;DHT22;40184;53.362;5.216;2023-03-23T13:58:28;16.60;99.90
54272;DHT22;40184;53.362;5.216;2023-03-23T14:01:16;16.30;99.90
54272;DHT22;40184;53.362;5.216;2023-03-23T14:03:45;15.70;99.90
54272;DHT22;40184;53.362;5.216;2023-03-23T14:06:18;15.20;99.90
54272;DHT22;40184;53.362;5.216;2023-03-23T14:08:47;14.70;99.90
54272;DHT22;40184;53.362;5.216;2023-03-23T14:11:29;14.50;99.90
54272;DHT22;40184;53.362;5.216;2023-03-23T14:14:05;14.20;99.90
54272;DHT22;40184;53.362;5.216;2023-03-23T14:19:12;14.00;99.90
54272;DHT22;40184;53.362;5.216;2023-03-23T14:21:44;13.80;99.90
54272;DHT22;40184;53.362;5.216;2023-03-23T14:24:33;13.80;99.90
54272;DHT22;40184;53.362;5.216;2023-03-23T14:27:21;13.80;99.90
54272;DHT22;40184;53.362;5.216;2023-03-23T14:29:58;13.80;99.90
54272;DHT22;40184;53.362;5.216;2023-03-23T14:32:24;13.80;99.90
54272;DHT22;40184;53.362;5.216;2023-03-23T14:34:52;13.70;99.90
54272;DHT22;40184;53.362;5.216;2023-03-23T14:37:18;13.60;99.90
54272;DHT22;40184;53.362;5.216;2023-03-23T14:39:48;13.60;99.90
54272;DHT22;40184;53.362;5.216;2023-03-23T14:42:27;13.60;99.90
54272;DHT22;40184;53.362;5.216;2023-03-23T14:44:53;13.60;99.90
54272;DHT22;40184;53.362;5.216;2023-03-23T14:47:25;13.60;99.90
54272;DHT22;40184;53.362;5.216;2023-03-23T14:49:56;13.50;99.90
54272;DHT22;40184;53.362;5.216;2023-03-23T14:52:26;13.50;99.90
54272;DHT22;40184;53.362;5.216;2023-03-23T14:54:52;13.50;99.90
54272;DHT22;40184;53.362;5.216;2023-03-23T14:57:25;13.50;99.90
54272;DHT22;40184;53.362;5.216;2023-03-23T14:59:51;13.40;99.90
54272;DHT22;40184;53.362;5.216;2023-03-23T15:04:50;13.40;99.90
54272;DHT22;40184;53.362;5.216;2023-03-23T15:07:18;13.30;99.90
54272;DHT22;40184;53.362;5.216;2023-03-23T15:09:45;13.20;99.90
54272;DHT22;40184;53.362;5.216;2023-03-23T15:12:26;13.20;99.90
54272;DHT22;40184;53.362;5.216;2023-03-23T15:15:07;13.20;99.90
54272;DHT22;40184;53.362;5.216;2023-03-23T15:17:45;13.20;99.90
54272;DHT22;40184;53.362;5.216;2023-03-23T15:20:24;13.20;99.90
54272;DHT22;40184;53.362;5.216;2023-03-23T15:22:50;13.20;99.90
54272;DHT22;40184;53.362;5.216;2023-03-23T15:25:29;13.10;99.90
54272;DHT22;40184;53.362;5.216;2023-03-23T15:30:32;13.20;99.90
54272;DHT22;40184;53.362;5.216;2023-03-23T15:33:03;13.30;99.90
54272;DHT22;40184;53.362;5.216;2023-03-23T15:35:34;13.30;99.90
54272;DHT22;40184;53.362;5.216;2023-03-23T15:38:05;13.30;99.90
54272;DHT22;40184;53.362;5.216;2023-03-23T15:40:37;13.10;99.90
54272;DHT22;40184;53.362;5.216;2023-03-23T15:43:19;13.10;99.90
54272;DHT22;40184;53.362;5.216;2023-03-23T15:48:49;13.20;99.90
54272;DHT22;40184;53.362;5.216;2023-03-23T15:51:16;13.10;99.90
54272;DHT22;40184;53.362;5.216;2023-03-23T15:53:43;13.10;99.90
54272;DHT22;40184;53.362;5.216;2023-03-23T15:56:11;13.10;99.90
54272;DHT22;40184;53.362;5.216;2023-03-23T15:58:37;13.10;99.90
54272;DHT22;40184;53.362;5.216;2023-03-23T16:01:20;13.10;99.90
54272;DHT22;40184;53.362;5.216;2023-03-23T16:06:20;13.10;99.90
54272;DHT22;40184;53.362;5.216;2023-03-23T16:08:46;13.00;99.90
54272;DHT22;40184;53.362;5.216;2023-03-23T16:11:17;13.00;99.90
54272;DHT22;40184;53.362;5.216;2023-03-23T16:13:43;13.00;99.90
54272;DHT22;40184;53.362;5.216;2023-03-23T16:16:18;12.90;99.90
54272;DHT22;40184;53.362;5.216;2023-03-23T16:18:45;12.90;99.90
54272;DHT22;40184;53.362;5.216;2023-03-23T16:21:11;12.90;99.90
54272;DHT22;40184;53.362;5.216;2023-03-23T16:23:37;12.80;99.90
54272;DHT22;40184;53.362;5.216;2023-03-23T16:26:03;12.80;99.90
54272;DHT22;40184;53.362;5.216;2023-03-23T16:28:29;12.80;99.90
54272;DHT22;40184;53.362;5.216;2023-03-23T16:30:54;12.70;99.90
54272;DHT22;40184;53.362;5.216;2023-03-23T16:33:20;12.70;99.90
54272;DHT22;40184;53.362;5.216;2023-03-23T16:35:46;12.70;99.90
54272;DHT22;40184;53.362;5.216;2023-03-23T16:38:13;12.60;99.90
54272;DHT22;40184;53.362;5.216;2023-03-23T16:40:42;12.60;99.90
54272;DHT22;40184;53.362;5.216;2023-03-23T16:43:09;12.60;99.90
54272;DHT22;40184;53.362;5.216;2023-03-23T16:45:36;12.60;99.90
54272;DHT22;40184;53.362;5.216;2023-03-23T16:48:02;12.60;99.90
54272;DHT22;40184;53.362;5.216;2023-03-23T16:50:29;12.60;99.90
54272;DHT22;40184;53.362;5.216;2023-03-23T16:52:55;12.60;99.90
54272;DHT22;40184;53.362;5.216;2023-03-23T16:55:21;12.60;99.90
54272;DHT22;40184;53.362;5.216;2023-03-23T16:57:47;12.50;99.90
54272;DHT22;40184;53.362;5.216;2023-03-23T17:00:15;12.50;99.90
54272;DHT22;40184;53.362;5.216;2023-03-23T17:02:44;12.50;99.90
54272;DHT22;40184;53.362;5.216;2023-03-23T17:05:11;12.50;99.90
54272;DHT22;40184;53.362;5.216;2023-03-23T17:07:38;12.40;99.90
54272;DHT22;40184;53.362;5.216;2023-03-23T17:10:05;12.40;99.90
54272;DHT22;40184;53.362;5.216;2023-03-23T17:12:32;12.30;99.90
54272;DHT22;40184;53.362;5.216;2023-03-23T17:14:57;12.30;99.90
54272;DHT22;40184;53.362;5.216;2023-03-23T17:17:23;12.30;99.90
54272;DHT22;40184;53.362;5.216;2023-03-23T17:19:49;12.30;99.90
54272;DHT22;40184;53.362;5.216;2023-03-23T17:22:16;12.30;99.90
54272;DHT22;40184;53.362;5.216;2023-03-23T17:24:42;12.20;99.90
54272;DHT22;40184;53.362;5.216;2023-03-23T17:27:08;12.20;99.90
54272;DHT22;40184;53.362;5.216;2023-03-23T17:29:34;12.20;99.90
54272;DHT22;40184;53.362;5.216;2023-03-23T17:31:59;12.20;99.90
54272;DHT22;40184;53.362;5.216;2023-03-23T17:34:25;12.10;99.90